createdAt,value
2023-05-04T00:01:43.891Z,18.13
2023-05-04T00:04:15.883Z,15.53
2023-05-04T00:06:46.200Z,15.23
2023-05-04T00:09:16.485Z,16.83
2023-05-04T00:11:45.333Z,18.57
2023-05-04T00:14:16.062Z,15.60
2023-05-04T00:16:46.900Z,19.17
2023-05-04T00:19:16.337Z,16.67
2023-05-04T00:21:46.163Z,20.53
2023-05-04T00:24:14.962Z,14.53
2023-05-04T00:26:46.739Z,14.50
2023-05-04T00:29:19.414Z,17.07
2023-05-04T00:31:48.878Z,17.23
2023-05-04T00:34:18.116Z,16.50
2023-05-04T00:36:48.505Z,20.23
2023-05-04T00:39:17.657Z,17.50
2023-05-04T00:41:48.415Z,17.97
2023-05-04T00:44:24.422Z,19.00
2023-05-04T00:46:53.920Z,18.27
2023-05-04T00:49:23.228Z,18.03
2023-05-04T00:51:53.353Z,18.00
2023-05-04T00:54:22.288Z,18.27
2023-05-04T00:56:51.030Z,18.63
2023-05-04T00:59:21.408Z,18.67
2023-05-04T01:01:50.145Z,18.27
2023-05-04T01:04:19.321Z,18.50
2023-05-04T01:09:37.734Z,16.43
2023-05-04T01:12:08.602Z,20.00
2023-05-04T01:14:39.845Z,19.27
2023-05-04T01:17:10.416Z,20.93
2023-05-04T01:19:40.463Z,18.13
2023-05-04T01:22:11.093Z,17.40
2023-05-04T01:24:43.213Z,19.73
2023-05-04T01:27:13.852Z,19.67
2023-05-04T01:29:47.871Z,18.93
2023-05-04T01:32:17.860Z,20.43
2023-05-04T01:34:47.639Z,21.13
2023-05-04T01:37:17.777Z,17.67
2023-05-04T01:39:47.050Z,18.17
2023-05-04T01:42:16.745Z,18.53
2023-05-04T01:44:47.414Z,20.10
2023-05-04T01:47:17.886Z,18.53
2023-05-04T01:49:46.668Z,18.73
2023-05-04T01:52:16.921Z,18.80
2023-05-04T01:54:47.166Z,18.43
2023-05-04T01:57:23.822Z,18.33
2023-05-04T01:59:52.671Z,18.93
2023-05-04T02:02:21.338Z,20.20
2023-05-04T02:04:49.939Z,18.27
2023-05-04T02:07:18.685Z,22.63
2023-05-04T02:09:56.863Z,20.90
2023-05-04T02:12:25.550Z,21.23
2023-05-04T02:14:54.919Z,17.17
2023-05-04T02:17:24.316Z,17.03
2023-05-04T02:19:53.176Z,21.60
2023-05-04T02:22:21.924Z,22.40
2023-05-04T02:24:52.623Z,28.33
2023-05-04T02:27:21.244Z,18.60
2023-05-04T02:29:49.775Z,20.77
2023-05-04T02:32:20.084Z,19.07
2023-05-04T02:34:50.088Z,20.23
2023-05-04T02:37:19.964Z,20.63
2023-05-04T02:39:50.687Z,19.60
2023-05-04T02:42:23.009Z,18.80
2023-05-04T02:44:51.993Z,20.53
2023-05-04T02:47:20.923Z,19.30
2023-05-04T02:49:51.250Z,20.17
2023-05-04T02:52:22.736Z,19.83
2023-05-04T02:54:53.134Z,22.10
2023-05-04T02:57:23.958Z,17.27
2023-05-04T02:59:53.815Z,19.17
2023-05-04T03:02:23.430Z,21.63
2023-05-04T03:04:53.846Z,22.27
2023-05-04T03:07:25.269Z,18.63
2023-05-04T03:09:54.127Z,19.80
2023-05-04T03:12:24.715Z,19.47
2023-05-04T03:14:53.522Z,17.63
2023-05-04T03:17:22.768Z,19.93
2023-05-04T03:19:52.358Z,20.17
2023-05-04T03:22:21.386Z,21.00
2023-05-04T03:24:51.269Z,20.17
2023-05-04T03:27:21.011Z,20.70
2023-05-04T03:29:52.400Z,20.30
2023-05-04T03:32:21.369Z,18.10
2023-05-04T03:34:49.922Z,20.20
2023-05-04T03:37:18.490Z,19.50
2023-05-04T03:39:47.206Z,20.67
2023-05-04T03:42:15.955Z,20.63
2023-05-04T03:44:44.640Z,22.87
2023-05-04T03:47:14.743Z,21.30
2023-05-04T03:49:44.014Z,25.67
2023-05-04T03:52:12.729Z,19.03
2023-05-04T03:54:41.411Z,18.43
2023-05-04T03:57:10.290Z,21.13
2023-05-04T03:59:39.045Z,21.80
2023-05-04T04:02:17.161Z,22.50
2023-05-04T04:04:47.278Z,20.67
2023-05-04T04:07:15.968Z,21.20
2023-05-04T04:09:44.885Z,19.33
2023-05-04T04:12:13.372Z,21.40
2023-05-04T04:14:42.000Z,23.20
2023-05-04T04:17:10.508Z,19.47
2023-05-04T04:19:39.623Z,22.33
2023-05-04T04:22:10.017Z,21.17
2023-05-04T04:24:38.648Z,20.27
2023-05-04T04:27:15.068Z,20.07
2023-05-04T04:29:44.534Z,20.57
2023-05-04T04:32:16.221Z,17.87
2023-05-04T04:34:45.075Z,21.87
2023-05-04T04:37:17.080Z,20.00
2023-05-04T04:39:45.500Z,22.13
2023-05-04T04:42:14.028Z,19.27
2023-05-04T04:44:42.509Z,17.30
2023-05-04T04:47:11.860Z,20.40
2023-05-04T04:49:42.040Z,21.57
2023-05-04T04:52:12.886Z,19.43
2023-05-04T04:54:45.411Z,21.70
2023-05-04T04:57:14.875Z,18.97
2023-05-04T04:59:46.501Z,26.37
2023-05-04T05:02:15.506Z,18.40
2023-05-04T05:04:44.277Z,20.17
2023-05-04T05:07:12.883Z,19.53
2023-05-04T05:09:41.513Z,21.07
2023-05-04T05:14:54.275Z,22.97
2023-05-04T05:17:23.054Z,20.47
2023-05-04T05:19:51.863Z,15.87
2023-05-04T05:22:20.869Z,21.93
2023-05-04T05:38:16.285Z,16.53
2023-05-04T05:40:44.948Z,16.43
2023-05-04T05:43:13.475Z,20.70
2023-05-04T05:45:44.379Z,18.07
2023-05-04T05:48:13.658Z,16.93
2023-05-04T05:53:45.984Z,16.50
2023-05-04T05:56:15.047Z,15.80
2023-05-04T05:58:45.199Z,15.60
2023-05-04T06:01:16.016Z,17.83
2023-05-04T06:03:45.195Z,18.00
2023-05-04T06:14:34.912Z,17.30
2023-05-04T06:17:04.766Z,14.70
2023-05-04T06:19:50.733Z,16.13
2023-05-04T06:28:21.252Z,13.53
2023-05-04T06:48:12.012Z,13.87
2023-05-04T06:50:41.022Z,12.10
2023-05-04T06:53:09.792Z,11.00
2023-05-04T06:55:38.358Z,11.73
2023-05-04T06:58:06.795Z,11.20
2023-05-04T07:00:35.051Z,12.83
2023-05-04T07:03:03.239Z,11.10
2023-05-04T07:05:36.807Z,11.30
2023-05-04T07:08:05.040Z,14.17
2023-05-04T07:10:33.516Z,14.20
2023-05-04T07:13:01.888Z,10.40
2023-05-04T07:15:43.943Z,10.47
2023-05-04T07:18:12.593Z,18.00
2023-05-04T07:20:40.854Z,10.33
2023-05-04T07:23:09.302Z,10.10
2023-05-04T07:25:37.653Z,9.07
2023-05-04T07:28:05.986Z,10.77
2023-05-04T07:30:34.127Z,12.27
2023-05-04T07:33:03.689Z,8.47
2023-05-04T07:35:31.891Z,9.03
2023-05-04T07:38:00.106Z,11.37
2023-05-04T07:40:28.316Z,12.83
2023-05-04T07:42:56.527Z,10.03
2023-05-04T07:45:24.644Z,9.13
2023-05-04T07:47:53.188Z,10.77
2023-05-04T07:50:22.810Z,7.97
2023-05-04T07:52:52.171Z,7.80
2023-05-04T07:55:20.634Z,7.93
2023-05-04T07:57:48.855Z,7.13
2023-05-04T08:00:17.463Z,7.63
2023-05-04T08:02:45.737Z,8.73
2023-05-04T08:05:13.920Z,6.50
2023-05-04T08:07:43.478Z,6.47
2023-05-04T08:10:12.040Z,6.90
2023-05-04T08:12:41.553Z,6.13
2023-05-04T08:15:10.720Z,5.73
2023-05-04T08:17:40.457Z,5.73
2023-05-04T08:20:09.445Z,7.00
2023-05-04T08:22:38.595Z,7.00
2023-05-04T08:25:09.418Z,10.17
2023-05-04T08:27:37.837Z,6.50
2023-05-04T08:30:06.412Z,8.33
2023-05-04T08:32:34.596Z,6.50
2023-05-04T08:35:03.009Z,5.87
2023-05-04T08:37:32.417Z,7.13
2023-05-04T08:40:00.564Z,5.40
2023-05-04T08:42:31.106Z,8.50
2023-05-04T08:44:59.625Z,6.17
2023-05-04T08:47:31.195Z,8.00
2023-05-04T08:49:59.408Z,7.07
2023-05-04T08:52:27.978Z,5.70
2023-05-04T08:54:56.933Z,9.07
2023-05-04T08:57:26.266Z,6.13
2023-05-04T08:59:56.971Z,7.23
2023-05-04T09:02:26.508Z,7.23
2023-05-04T09:04:55.286Z,6.93
2023-05-04T09:07:23.792Z,21.67
2023-05-04T09:09:52.880Z,18.07
2023-05-04T09:12:21.120Z,9.43
2023-05-04T09:14:49.254Z,8.30
2023-05-04T09:17:25.452Z,7.13
2023-05-04T09:22:40.965Z,7.93
2023-05-04T09:25:10.338Z,7.17
2023-05-04T09:27:39.236Z,9.33
2023-05-04T09:30:09.062Z,7.00
2023-05-04T09:32:38.891Z,10.60
2023-05-04T09:35:07.921Z,6.57
2023-05-04T09:37:44.601Z,5.23
2023-05-04T09:40:14.902Z,8.20
2023-05-04T09:42:44.170Z,6.03
2023-05-04T09:45:13.576Z,6.87
2023-05-04T09:47:42.237Z,8.30
2023-05-04T09:50:20.107Z,11.30
2023-05-04T09:52:49.284Z,5.77
2023-05-04T09:55:19.569Z,6.83
2023-05-04T09:57:49.450Z,7.87
2023-05-04T10:00:18.575Z,9.73
2023-05-04T10:02:47.485Z,10.30
2023-05-04T10:05:17.238Z,9.37
2023-05-04T10:07:45.598Z,7.33
2023-05-04T10:10:14.114Z,13.27
2023-05-04T10:12:45.875Z,7.40
2023-05-04T10:15:16.042Z,6.20
2023-05-04T10:17:58.499Z,9.07
2023-05-04T10:20:44.598Z,8.93
2023-05-04T10:23:21.351Z,7.17
2023-05-04T10:25:56.425Z,6.47
2023-05-04T10:28:32.826Z,5.33
2023-05-04T10:31:01.228Z,5.33
2023-05-04T10:33:39.177Z,6.57
2023-05-04T10:36:07.743Z,6.43
2023-05-04T10:38:35.995Z,6.97
2023-05-04T10:41:15.121Z,7.43
2023-05-04T10:43:48.803Z,8.30
2023-05-04T10:46:21.369Z,6.03
2023-05-04T10:48:49.951Z,5.67
2023-05-04T10:51:21.092Z,5.87
2023-05-04T10:53:49.290Z,4.90
2023-05-04T10:56:24.047Z,8.83
2023-05-04T10:58:53.858Z,6.30
2023-05-04T11:01:23.011Z,9.97
2023-05-04T11:03:51.628Z,6.03
2023-05-04T11:06:23.390Z,7.73
2023-05-04T11:09:00.802Z,9.90
2023-05-04T11:11:29.047Z,5.53
2023-05-04T11:13:58.804Z,6.97
2023-05-04T11:16:27.844Z,8.13
2023-05-04T11:18:56.474Z,10.17
2023-05-04T11:21:29.275Z,7.17
2023-05-04T11:23:57.592Z,10.97
2023-05-04T11:26:26.015Z,7.13
2023-05-04T11:28:54.428Z,7.17
2023-05-04T11:31:24.012Z,7.03
2023-05-04T11:33:54.476Z,6.93
2023-05-04T11:36:23.259Z,6.77
2023-05-04T11:38:51.858Z,6.67
2023-05-04T11:41:20.118Z,8.37
2023-05-04T11:43:49.193Z,6.90
2023-05-04T11:46:18.075Z,6.23
2023-05-04T11:48:47.645Z,9.90
2023-05-04T11:51:15.958Z,8.60
2023-05-04T11:53:44.187Z,7.57
2023-05-04T11:56:12.418Z,6.53
2023-05-04T11:58:40.671Z,5.83
2023-05-04T12:01:09.208Z,6.77
2023-05-04T12:03:53.169Z,8.60
2023-05-04T12:06:33.933Z,5.13
2023-05-04T12:09:05.756Z,5.53
2023-05-04T12:11:33.997Z,6.13
2023-05-04T12:14:06.485Z,8.27
2023-05-04T12:16:34.989Z,7.83
2023-05-04T12:19:04.496Z,5.53
2023-05-04T12:21:34.297Z,7.53
2023-05-04T12:24:03.240Z,9.17
2023-05-04T12:26:31.708Z,6.00
2023-05-04T12:28:59.867Z,7.90
2023-05-04T12:31:28.562Z,8.93
2023-05-04T12:33:56.735Z,7.03
2023-05-04T12:36:24.899Z,7.70
2023-05-04T12:38:54.717Z,7.87
2023-05-04T12:41:23.239Z,5.67
2023-05-04T12:43:51.463Z,6.97
2023-05-04T12:46:23.173Z,5.70
2023-05-04T12:48:51.405Z,8.30
2023-05-04T12:51:19.762Z,8.60
2023-05-04T12:53:49.569Z,11.07
2023-05-04T12:56:19.100Z,7.10
2023-05-04T12:58:47.294Z,5.83
2023-05-04T13:01:16.047Z,7.27
2023-05-04T13:03:44.383Z,7.57
2023-05-04T13:06:12.908Z,9.27
2023-05-04T13:08:41.106Z,7.13
2023-05-04T13:11:09.249Z,13.60
2023-05-04T13:13:38.811Z,5.93
2023-05-04T13:16:07.273Z,10.07
2023-05-04T13:18:35.698Z,9.63
2023-05-04T13:21:03.862Z,9.13
2023-05-04T13:23:32.210Z,9.80
2023-05-04T13:26:00.442Z,10.17
2023-05-04T13:28:29.829Z,10.80
2023-05-04T13:30:59.350Z,7.03
2023-05-04T13:33:29.939Z,8.17
2023-05-04T13:35:59.119Z,7.47
2023-05-04T13:38:27.666Z,5.77
2023-05-04T13:40:58.707Z,6.57
2023-05-04T13:43:26.923Z,8.07
2023-05-04T13:45:57.084Z,7.20
2023-05-04T13:48:28.885Z,8.60
2023-05-04T13:50:58.881Z,12.50
2023-05-04T13:53:27.169Z,6.27
2023-05-04T13:55:55.565Z,6.93
2023-05-04T13:58:26.525Z,9.23
2023-05-04T14:00:57.839Z,7.80
2023-05-04T14:03:28.009Z,6.77
2023-05-04T14:05:56.243Z,6.80
2023-05-04T14:08:24.440Z,7.37
2023-05-04T14:10:52.971Z,4.87
2023-05-04T14:13:21.192Z,9.93
2023-05-04T14:15:49.672Z,6.80
2023-05-04T14:18:18.005Z,9.73
2023-05-04T14:20:47.713Z,8.63
2023-05-04T14:23:15.981Z,7.50
2023-05-04T14:25:44.443Z,5.53
2023-05-04T14:28:12.687Z,4.73
2023-05-04T14:30:40.896Z,10.03
2023-05-04T14:33:09.105Z,5.27
2023-05-04T14:35:39.860Z,6.50
2023-05-04T14:38:09.679Z,8.23
2023-05-04T14:40:37.880Z,9.50
2023-05-04T14:43:06.174Z,9.67
2023-05-04T14:45:35.194Z,13.73
2023-05-04T14:48:03.407Z,5.77
2023-05-04T14:50:32.217Z,6.83
2023-05-04T14:53:00.554Z,5.47
2023-05-04T14:55:31.198Z,5.53
2023-05-04T14:57:59.531Z,5.70
2023-05-04T15:00:27.762Z,9.10
2023-05-04T15:02:56.121Z,5.90
2023-05-04T15:05:24.420Z,6.97
2023-05-04T15:07:52.901Z,6.20
2023-05-04T15:10:21.379Z,6.97
2023-05-04T15:12:51.092Z,8.07
2023-05-04T15:15:20.490Z,4.73
2023-05-04T15:17:48.776Z,8.77
2023-05-04T15:20:17.103Z,6.80
2023-05-04T15:22:49.005Z,5.70
2023-05-04T15:25:17.193Z,6.00
2023-05-04T15:27:45.458Z,4.97
2023-05-04T15:30:15.401Z,8.37
2023-05-04T15:32:43.612Z,4.93
2023-05-04T15:35:11.824Z,6.30
2023-05-04T15:37:40.104Z,6.43
2023-05-04T15:40:09.507Z,7.97
2023-05-04T15:42:38.394Z,5.83
2023-05-04T15:45:08.676Z,5.73
2023-05-04T15:47:39.544Z,9.97
2023-05-04T15:50:08.285Z,5.50
2023-05-04T15:52:36.838Z,8.43
2023-05-04T15:55:17.013Z,8.23
2023-05-04T15:57:52.482Z,6.10
2023-05-04T16:00:21.168Z,8.67
2023-05-04T16:02:50.919Z,9.47
2023-05-04T16:05:20.468Z,7.07
2023-05-04T16:07:50.075Z,6.80
2023-05-04T16:10:18.209Z,5.50
2023-05-04T16:12:46.533Z,5.63
2023-05-04T16:15:15.224Z,6.77
2023-05-04T16:17:45.214Z,5.33
2023-05-04T16:20:14.873Z,6.17
2023-05-04T16:22:43.058Z,13.67
2023-05-04T16:25:11.928Z,6.30
2023-05-04T16:27:40.528Z,6.63
2023-05-04T16:30:09.620Z,8.90
2023-05-04T16:32:38.195Z,4.90
2023-05-04T16:35:07.070Z,6.57
2023-05-04T16:37:38.606Z,6.03
2023-05-04T16:40:10.835Z,5.87
2023-05-04T16:42:39.029Z,5.40
2023-05-04T16:45:07.756Z,5.20
2023-05-04T16:47:36.516Z,6.17
2023-05-04T16:50:05.143Z,8.90
2023-05-04T16:52:33.697Z,8.50
2023-05-04T16:55:04.665Z,5.57
2023-05-04T16:57:37.525Z,7.70
2023-05-04T17:00:07.387Z,8.33
2023-05-04T17:02:36.098Z,8.73
2023-05-04T17:05:06.484Z,8.17
2023-05-04T17:07:34.763Z,5.90
2023-05-04T17:10:04.368Z,5.97
2023-05-04T17:12:33.017Z,8.57
2023-05-04T17:15:01.522Z,9.03
2023-05-04T17:17:30.245Z,7.73
2023-05-04T17:19:58.530Z,4.87
2023-05-04T17:22:26.857Z,5.23
2023-05-04T17:24:55.102Z,3.90
2023-05-04T17:27:24.665Z,7.10
2023-05-04T17:29:53.133Z,5.40
2023-05-04T17:32:21.636Z,4.97
2023-05-04T17:34:49.934Z,5.83
2023-05-04T17:37:18.133Z,5.37
2023-05-04T17:39:47.092Z,6.13
2023-05-04T17:42:15.926Z,5.17
2023-05-04T17:44:45.662Z,3.37
2023-05-04T17:47:14.100Z,6.30
2023-05-04T17:49:42.276Z,11.37
2023-05-04T17:52:12.038Z,4.00
2023-05-04T17:54:41.896Z,4.90
2023-05-04T17:57:10.069Z,7.90
2023-05-04T17:59:38.232Z,5.17
2023-05-04T18:02:07.970Z,5.37
2023-05-04T18:04:38.430Z,3.87
2023-05-04T18:07:06.795Z,3.87
2023-05-04T18:09:35.000Z,8.10
2023-05-04T18:12:03.250Z,6.90
2023-05-04T18:14:31.916Z,6.00
2023-05-04T18:17:00.083Z,3.90
2023-05-04T18:19:29.772Z,7.80
2023-05-04T18:21:57.952Z,8.10
2023-05-04T18:24:26.413Z,5.23
2023-05-04T18:26:54.853Z,7.07
2023-05-04T18:29:23.201Z,4.97
2023-05-04T18:31:51.428Z,4.83
2023-05-04T18:34:19.679Z,4.00
2023-05-04T18:36:51.949Z,3.67
2023-05-04T18:39:20.520Z,6.80
2023-05-04T18:41:50.115Z,5.23
2023-05-04T18:44:18.349Z,5.13
2023-05-04T18:46:46.722Z,4.33
2023-05-04T18:49:16.643Z,5.97
2023-05-04T18:51:44.924Z,6.20
2023-05-04T18:54:16.046Z,5.67
2023-05-04T18:56:44.536Z,4.97
2023-05-04T18:59:12.716Z,5.03
2023-05-04T19:01:41.327Z,3.60
2023-05-04T19:04:14.831Z,5.10
2023-05-04T19:07:10.868Z,4.63
2023-05-04T19:09:40.944Z,7.33
2023-05-04T19:12:19.069Z,5.00
2023-05-04T19:14:50.654Z,7.10
2023-05-04T19:17:28.494Z,5.27
2023-05-04T19:20:00.019Z,3.90
2023-05-04T19:22:31.765Z,6.00
2023-05-04T19:25:02.294Z,6.67
2023-05-04T19:27:33.587Z,5.37
2023-05-04T19:30:05.436Z,10.20
2023-05-04T19:32:39.456Z,4.50
2023-05-04T19:35:08.364Z,6.67
2023-05-04T19:37:40.020Z,6.23
2023-05-04T19:40:36.908Z,5.87
2023-05-04T19:43:05.978Z,4.70
2023-05-04T19:45:42.617Z,4.50
2023-05-04T19:48:16.553Z,4.77
2023-05-04T19:50:45.782Z,4.97
2023-05-04T19:53:16.762Z,4.67
2023-05-04T19:55:49.929Z,5.17
2023-05-04T19:58:18.308Z,6.33
2023-05-04T20:00:50.616Z,8.97
2023-05-04T20:03:27.810Z,5.13
2023-05-04T20:05:56.925Z,5.87
2023-05-04T20:11:10.729Z,4.90
2023-05-04T20:13:55.487Z,7.20
2023-05-04T20:16:38.902Z,5.40
2023-05-04T20:19:19.718Z,4.93
2023-05-04T20:21:48.177Z,4.57
2023-05-04T20:24:19.434Z,5.60
2023-05-04T20:26:49.277Z,7.07
2023-05-04T20:29:21.233Z,5.60
2023-05-04T20:31:51.250Z,4.30
2023-05-04T20:34:22.145Z,4.23
2023-05-04T20:36:59.714Z,4.77
2023-05-04T20:39:28.179Z,4.73
2023-05-04T20:41:58.159Z,5.90
2023-05-04T20:44:29.661Z,8.13
2023-05-04T20:47:01.839Z,3.93
2023-05-04T20:49:30.279Z,3.43
2023-05-04T20:52:00.269Z,5.50
2023-05-04T20:54:32.233Z,7.63
2023-05-04T20:57:05.961Z,4.73
2023-05-04T20:59:35.781Z,5.93
2023-05-04T21:02:07.999Z,4.00
2023-05-04T21:04:39.442Z,6.03
2023-05-04T21:07:10.649Z,4.37
2023-05-04T21:09:42.706Z,3.67
2023-05-04T21:12:31.071Z,5.40
2023-05-04T21:14:59.715Z,4.60
2023-05-04T21:17:31.418Z,7.80
2023-05-04T21:20:03.437Z,5.90
2023-05-04T21:22:32.159Z,4.80
2023-05-04T21:25:04.221Z,6.07
2023-05-04T21:27:47.201Z,5.47
2023-05-04T21:30:19.764Z,5.40
2023-05-04T21:32:59.821Z,4.67
2023-05-04T21:35:38.749Z,4.90
2023-05-04T21:38:09.929Z,9.10
2023-05-04T21:40:41.555Z,5.40
2023-05-04T21:43:26.863Z,10.67
2023-05-04T21:45:58.133Z,4.57
2023-05-04T21:48:41.189Z,5.17
2023-05-04T21:51:15.625Z,7.80
2023-05-04T21:53:47.235Z,5.57
2023-05-04T21:56:18.311Z,7.30
2023-05-04T21:58:53.707Z,4.50
2023-05-04T22:04:07.993Z,9.40
2023-05-04T22:06:37.709Z,5.00
2023-05-04T22:09:06.503Z,6.60
2023-05-04T22:11:40.379Z,6.63
2023-05-04T22:14:14.290Z,7.03
2023-05-04T22:19:31.106Z,7.97
2023-05-04T22:22:02.302Z,6.87
2023-05-04T22:24:51.596Z,9.97
2023-05-04T22:27:19.889Z,5.37
2023-05-04T22:29:52.078Z,4.30
2023-05-04T22:32:23.509Z,5.43
2023-05-04T22:34:57.005Z,8.60
2023-05-04T22:37:25.618Z,3.90
2023-05-04T22:39:56.155Z,4.53
2023-05-04T22:42:50.122Z,3.47
2023-05-04T22:45:29.544Z,7.63
2023-05-04T22:48:01.008Z,5.17
2023-05-04T22:50:29.516Z,5.43
2023-05-04T22:53:02.613Z,6.37
2023-05-04T22:55:49.797Z,7.17
2023-05-04T22:58:21.761Z,5.90
2023-05-04T23:01:17.545Z,6.37
2023-05-04T23:03:55.202Z,4.40
2023-05-04T23:09:09.417Z,3.13
2023-05-04T23:11:43.274Z,3.97
2023-05-04T23:14:12.097Z,4.60
2023-05-04T23:16:42.396Z,5.03
2023-05-04T23:19:10.725Z,7.20
2023-05-04T23:21:41.327Z,4.97
2023-05-04T23:24:10.966Z,6.23
2023-05-04T23:26:39.305Z,6.77
2023-05-04T23:29:08.293Z,7.40
2023-05-04T23:31:37.079Z,8.90
2023-05-04T23:34:09.176Z,6.87
2023-05-04T23:36:48.230Z,7.17
2023-05-04T23:39:16.989Z,3.80
2023-05-04T23:41:45.472Z,4.30
2023-05-04T23:44:13.934Z,7.37
2023-05-04T23:46:44.080Z,6.07
2023-05-04T23:49:14.324Z,7.53
2023-05-04T23:51:43.040Z,6.83
2023-05-04T23:54:11.733Z,5.50
2023-05-04T23:56:40.276Z,5.60
2023-05-04T23:59:08.801Z,4.53
